sensor_id;sensor_type;location;lat;lon;timestamp;temperature;humidity
66119;DHT22;52912;48.564;9.302;2023-04-23T00:02:12;13.92;78.06
66119;DHT22;52912;48.564;9.302;2023-04-23T00:04:48;13.88;77.81
66119;DHT22;52912;48.564;9.302;2023-04-23T00:07:14;13.86;78.55
66119;DHT22;52912;48.564;9.302;2023-04-23T00:09:40;13.89;78.65
66119;DHT22;52912;48.564;9.302;2023-04-23T00:12:06;13.82;78.38
66119;DHT22;52912;48.564;9.302;2023-04-23T00:14:32;13.75;77.91
66119;DHT22;52912;48.564;9.302;2023-04-23T00:16:57;13.81;77.98
66119;DHT22;52912;48.564;9.302;2023-04-23T00:19:24;13.71;78.23
66119;DHT22;52912;48.564;9.302;2023-04-23T00:21:50;13.77;77.57
66119;DHT22;52912;48.564;9.302;2023-04-23T00:24:15;13.71;77.79
66119;DHT22;52912;48.564;9.302;2023-04-23T00:26:41;13.68;77.62
66119;DHT22;52912;48.564;9.302;2023-04-23T00:29:06;13.71;77.42
66119;DHT22;52912;48.564;9.302;2023-04-23T00:31:32;13.74;77.23
66119;DHT22;52912;48.564;9.302;2023-04-23T00:33:57;13.82;77.08
66119;DHT22;52912;48.564;9.302;2023-04-23T00:36:24;13.74;76.82
66119;DHT22;52912;48.564;9.302;2023-04-23T00:38:49;13.85;76.57
66119;DHT22;52912;48.564;9.302;2023-04-23T00:41:15;13.92;76.21
66119;DHT22;52912;48.564;9.302;2023-04-23T00:43:40;13.85;76.49
66119;DHT22;52912;48.564;9.302;2023-04-23T00:46:06;13.82;76.07
66119;DHT22;52912;48.564;9.302;2023-04-23T00:48:32;13.98;76.18
66119;DHT22;52912;48.564;9.302;2023-04-23T00:50:58;13.89;75.77
66119;DHT22;52912;48.564;9.302;2023-04-23T00:53:25;13.92;75.94
66119;DHT22;52912;48.564;9.302;2023-04-23T00:55:51;13.91;75.97
66119;DHT22;52912;48.564;9.302;2023-04-23T00:58:17;13.92;76.09
66119;DHT22;52912;48.564;9.302;2023-04-23T01:00:45;13.88;76.37
66119;DHT22;52912;48.564;9.302;2023-04-23T01:03:11;13.88;76.07
66119;DHT22;52912;48.564;9.302;2023-04-23T01:05:36;13.85;76.29
66119;DHT22;52912;48.564;9.302;2023-04-23T01:08:02;13.84;76.56
66119;DHT22;52912;48.564;9.302;2023-04-23T01:10:30;13.85;77.27
66119;DHT22;52912;48.564;9.302;2023-04-23T01:12:56;13.77;77.62
66119;DHT22;52912;48.564;9.302;2023-04-23T01:15:21;13.74;77.62
66119;DHT22;52912;48.564;9.302;2023-04-23T01:17:47;13.65;78.38
66119;DHT22;52912;48.564;9.302;2023-04-23T01:20:12;13.58;78.84
66119;DHT22;52912;48.564;9.302;2023-04-23T01:22:39;13.63;79.95
66119;DHT22;52912;48.564;9.302;2023-04-23T01:25:05;13.57;79.20
66119;DHT22;52912;48.564;9.302;2023-04-23T01:27:31;13.48;79.90
66119;DHT22;52912;48.564;9.302;2023-04-23T01:29:57;13.46;80.40
66119;DHT22;52912;48.564;9.302;2023-04-23T01:32:23;13.42;80.45
66119;DHT22;52912;48.564;9.302;2023-04-23T01:34:49;13.40;80.80
66119;DHT22;52912;48.564;9.302;2023-04-23T01:37:15;13.29;81.00
66119;DHT22;52912;48.564;9.302;2023-04-23T01:39:42;13.22;81.64
66119;DHT22;52912;48.564;9.302;2023-04-23T01:42:08;13.30;81.56
66119;DHT22;52912;48.564;9.302;2023-04-23T01:44:33;13.22;81.82
66119;DHT22;52912;48.564;9.302;2023-04-23T01:46:59;13.15;82.54
66119;DHT22;52912;48.564;9.302;2023-04-23T01:49:24;13.11;83.25
66119;DHT22;52912;48.564;9.302;2023-04-23T01:51:50;13.05;83.50
66119;DHT22;52912;48.564;9.302;2023-04-23T01:54:15;12.95;83.43
66119;DHT22;52912;48.564;9.302;2023-04-23T01:56:42;12.92;84.11
66119;DHT22;52912;48.564;9.302;2023-04-23T01:59:07;12.98;84.41
66119;DHT22;52912;48.564;9.302;2023-04-23T02:01:43;12.99;84.33
66119;DHT22;52912;48.564;9.302;2023-04-23T02:04:10;12.85;84.41
66119;DHT22;52912;48.564;9.302;2023-04-23T02:06:36;12.80;85.14
66119;DHT22;52912;48.564;9.302;2023-04-23T02:09:01;12.78;84.60
66119;DHT22;52912;48.564;9.302;2023-04-23T02:11:27;12.71;84.91
66119;DHT22;52912;48.564;9.302;2023-04-23T02:13:54;12.78;85.29
66119;DHT22;52912;48.564;9.302;2023-04-23T02:16:19;12.73;85.39
66119;DHT22;52912;48.564;9.302;2023-04-23T02:18:45;12.63;85.62
66119;DHT22;52912;48.564;9.302;2023-04-23T02:21:10;12.54;85.87
66119;DHT22;52912;48.564;9.302;2023-04-23T02:23:35;12.51;86.02
66119;DHT22;52912;48.564;9.302;2023-04-23T02:26:01;12.50;86.44
66119;DHT22;52912;48.564;9.302;2023-04-23T02:28:26;12.60;86.66
66119;DHT22;52912;48.564;9.302;2023-04-23T02:30:53;12.47;86.37
66119;DHT22;52912;48.564;9.302;2023-04-23T02:33:19;12.44;86.82
66119;DHT22;52912;48.564;9.302;2023-04-23T02:35:44;12.33;87.45
66119;DHT22;52912;48.564;9.302;2023-04-23T02:38:10;12.32;87.91
66119;DHT22;52912;48.564;9.302;2023-04-23T02:40:35;12.33;88.21
66119;DHT22;52912;48.564;9.302;2023-04-23T02:43:00;12.33;88.47
66119;DHT22;52912;48.564;9.302;2023-04-23T02:45:26;12.23;88.80
66119;DHT22;52912;48.564;9.302;2023-04-23T02:47:53;12.25;89.19
66119;DHT22;52912;48.564;9.302;2023-04-23T02:50:18;12.15;89.17
66119;DHT22;52912;48.564;9.302;2023-04-23T02:52:44;12.15;89.50
66119;DHT22;52912;48.564;9.302;2023-04-23T02:55:09;12.16;89.09
66119;DHT22;52912;48.564;9.302;2023-04-23T02:57:35;12.15;89.57
66119;DHT22;52912;48.564;9.302;2023-04-23T03:00:01;12.12;89.94
66119;DHT22;52912;48.564;9.302;2023-04-23T03:02:26;11.99;90.09
66119;DHT22;52912;48.564;9.302;2023-04-23T03:04:53;12.06;90.12
66119;DHT22;52912;48.564;9.302;2023-04-23T03:07:18;11.94;90.55
66119;DHT22;52912;48.564;9.302;2023-04-23T03:09:44;12.01;90.61
66119;DHT22;52912;48.564;9.302;2023-04-23T03:12:09;12.02;91.41
66119;DHT22;52912;48.564;9.302;2023-04-23T03:14:35;11.91;90.98
66119;DHT22;52912;48.564;9.302;2023-04-23T03:17:00;11.78;91.52
66119;DHT22;52912;48.564;9.302;2023-04-23T03:19:25;11.81;91.64
66119;DHT22;52912;48.564;9.302;2023-04-23T03:21:52;11.81;91.41
66119;DHT22;52912;48.564;9.302;2023-04-23T03:24:18;11.75;91.93
66119;DHT22;52912;48.564;9.302;2023-04-23T03:26:43;11.78;92.10
66119;DHT22;52912;48.564;9.302;2023-04-23T03:29:09;11.75;92.57
66119;DHT22;52912;48.564;9.302;2023-04-23T03:31:34;11.70;92.36
66119;DHT22;52912;48.564;9.302;2023-04-23T03:33:59;11.73;92.50
66119;DHT22;52912;48.564;9.302;2023-04-23T03:36:25;11.73;92.41
66119;DHT22;52912;48.564;9.302;2023-04-23T03:38:52;11.71;92.47
66119;DHT22;52912;48.564;9.302;2023-04-23T03:41:17;11.70;92.46
66119;DHT22;52912;48.564;9.302;2023-04-23T03:43:43;11.70;93.06
66119;DHT22;52912;48.564;9.302;2023-04-23T03:46:08;11.70;93.36
66119;DHT22;52912;48.564;9.302;2023-04-23T03:48:33;11.73;91.69
66119;DHT22;52912;48.564;9.302;2023-04-23T03:50:59;11.77;92.02
66119;DHT22;52912;48.564;9.302;2023-04-23T03:53:25;11.77;92.22
66119;DHT22;52912;48.564;9.302;2023-04-23T03:55:51;11.87;91.34
66119;DHT22;52912;48.564;9.302;2023-04-23T03:58:17;11.89;91.60
66119;DHT22;52912;48.564;9.302;2023-04-23T04:00:42;11.84;92.93
66119;DHT22;52912;48.564;9.302;2023-04-23T04:03:08;11.74;93.07
66119;DHT22;52912;48.564;9.302;2023-04-23T04:05:33;11.71;93.30
66119;DHT22;52912;48.564;9.302;2023-04-23T04:07:59;11.67;93.58
66119;DHT22;52912;48.564;9.302;2023-04-23T04:10:24;11.68;93.55
66119;DHT22;52912;48.564;9.302;2023-04-23T04:12:51;11.70;93.60
66119;DHT22;52912;48.564;9.302;2023-04-23T04:15:17;11.68;93.57
66119;DHT22;52912;48.564;9.302;2023-04-23T04:17:42;11.68;93.75
66119;DHT22;52912;48.564;9.302;2023-04-23T04:20:08;11.68;94.00
66119;DHT22;52912;48.564;9.302;2023-04-23T04:22:34;11.67;94.30
66119;DHT22;52912;48.564;9.302;2023-04-23T04:24:59;11.57;94.46
66119;DHT22;52912;48.564;9.302;2023-04-23T04:27:25;11.67;94.10
66119;DHT22;52912;48.564;9.302;2023-04-23T04:29:52;11.60;93.39
66119;DHT22;52912;48.564;9.302;2023-04-23T04:32:17;11.61;93.39
66119;DHT22;52912;48.564;9.302;2023-04-23T04:34:43;11.57;94.21
66119;DHT22;52912;48.564;9.302;2023-04-23T04:37:08;11.63;93.89
66119;DHT22;52912;48.564;9.302;2023-04-23T04:39:34;11.54;94.64
66119;DHT22;52912;48.564;9.302;2023-04-23T04:41:59;11.57;93.78
66119;DHT22;52912;48.564;9.302;2023-04-23T04:44:25;11.59;93.73
66119;DHT22;52912;48.564;9.302;2023-04-23T04:46:51;11.59;94.35
66119;DHT22;52912;48.564;9.302;2023-04-23T04:49:17;11.56;93.83
66119;DHT22;52912;48.564;9.302;2023-04-23T04:51:42;11.46;93.13
66119;DHT22;52912;48.564;9.302;2023-04-23T04:54:08;11.49;92.39
66119;DHT22;52912;48.564;9.302;2023-04-23T04:56:33;11.57;91.19
66119;DHT22;52912;48.564;9.302;2023-04-23T04:58:59;11.61;91.34
66119;DHT22;52912;48.564;9.302;2023-04-23T05:01:25;11.60;91.22
66119;DHT22;52912;48.564;9.302;2023-04-23T05:03:52;11.53;90.89
66119;DHT22;52912;48.564;9.302;2023-04-23T05:06:18;11.54;90.65
66119;DHT22;52912;48.564;9.302;2023-04-23T05:08:43;11.51;91.03
66119;DHT22;52912;48.564;9.302;2023-04-23T05:11:09;11.60;90.98
66119;DHT22;52912;48.564;9.302;2023-04-23T05:13:34;11.61;90.80
66119;DHT22;52912;48.564;9.302;2023-04-23T05:16:00;11.63;90.82
66119;DHT22;52912;48.564;9.302;2023-04-23T05:18:25;11.63;90.78
66119;DHT22;52912;48.564;9.302;2023-04-23T05:20:52;11.71;91.43
66119;DHT22;52912;48.564;9.302;2023-04-23T05:23:17;11.57;90.89
66119;DHT22;52912;48.564;9.302;2023-04-23T05:25:43;11.61;91.58
66119;DHT22;52912;48.564;9.302;2023-04-23T05:28:08;11.59;91.30
66119;DHT22;52912;48.564;9.302;2023-04-23T05:30:34;11.61;90.44
66119;DHT22;52912;48.564;9.302;2023-04-23T05:32:59;11.67;90.46
66119;DHT22;52912;48.564;9.302;2023-04-23T05:35:25;11.66;90.79
66119;DHT22;52912;48.564;9.302;2023-04-23T05:37:51;11.57;90.67
66119;DHT22;52912;48.564;9.302;2023-04-23T05:40:17;11.61;90.93
66119;DHT22;52912;48.564;9.302;2023-04-23T05:42:42;11.60;91.59
66119;DHT22;52912;48.564;9.302;2023-04-23T05:45:09;11.64;91.50
66119;DHT22;52912;48.564;9.302;2023-04-23T05:47:34;11.64;90.78
66119;DHT22;52912;48.564;9.302;2023-04-23T05:50:00;11.67;89.34
66119;DHT22;52912;48.564;9.302;2023-04-23T05:52:25;11.77;90.73
66119;DHT22;52912;48.564;9.302;2023-04-23T05:54:52;11.77;90.21
66119;DHT22;52912;48.564;9.302;2023-04-23T05:57:17;11.87;91.81
66119;DHT22;52912;48.564;9.302;2023-04-23T05:59:43;11.92;90.50
66119;DHT22;52912;48.564;9.302;2023-04-23T06:02:09;11.88;89.19
66119;DHT22;52912;48.564;9.302;2023-04-23T06:04:35;11.74;89.42
66119;DHT22;52912;48.564;9.302;2023-04-23T06:07:00;11.85;89.70
66119;DHT22;52912;48.564;9.302;2023-04-23T06:09:26;11.79;88.76
66119;DHT22;52912;48.564;9.302;2023-04-23T06:11:52;11.87;89.11
66119;DHT22;52912;48.564;9.302;2023-04-23T06:14:18;11.94;87.87
66119;DHT22;52912;48.564;9.302;2023-04-23T06:16:44;11.96;87.74
66119;DHT22;52912;48.564;9.302;2023-04-23T06:19:09;11.98;88.02
66119;DHT22;52912;48.564;9.302;2023-04-23T06:21:35;12.11;87.36
66119;DHT22;52912;48.564;9.302;2023-04-23T06:24:00;12.29;87.42
66119;DHT22;52912;48.564;9.302;2023-04-23T06:26:26;12.56;87.56
66119;DHT22;52912;48.564;9.302;2023-04-23T06:28:52;12.71;85.82
66119;DHT22;52912;48.564;9.302;2023-04-23T06:31:18;12.83;85.94
66119;DHT22;52912;48.564;9.302;2023-04-23T06:33:43;12.87;84.87
66119;DHT22;52912;48.564;9.302;2023-04-23T06:36:09;13.01;85.46
66119;DHT22;52912;48.564;9.302;2023-04-23T06:38:34;13.06;84.86
66119;DHT22;52912;48.564;9.302;2023-04-23T06:41:00;13.23;84.43
66119;DHT22;52912;48.564;9.302;2023-04-23T06:43:25;13.42;81.71
66119;DHT22;52912;48.564;9.302;2023-04-23T06:45:52;13.54;82.08
66119;DHT22;52912;48.564;9.302;2023-04-23T06:48:17;13.54;81.77
66119;DHT22;52912;48.564;9.302;2023-04-23T06:50:43;13.53;80.70
66119;DHT22;52912;48.564;9.302;2023-04-23T06:53:08;13.57;81.29
66119;DHT22;52912;48.564;9.302;2023-04-23T06:55:34;13.73;81.15
66119;DHT22;52912;48.564;9.302;2023-04-23T06:58:00;13.99;80.79
66119;DHT22;52912;48.564;9.302;2023-04-23T07:00:25;14.10;79.80
66119;DHT22;52912;48.564;9.302;2023-04-23T07:02:52;14.12;80.39
66119;DHT22;52912;48.564;9.302;2023-04-23T07:05:17;14.05;80.37
66119;DHT22;52912;48.564;9.302;2023-04-23T07:07:43;14.16;79.16
66119;DHT22;52912;48.564;9.302;2023-04-23T07:10:09;13.94;78.69
66119;DHT22;52912;48.564;9.302;2023-04-23T07:12:35;13.85;78.82
66119;DHT22;52912;48.564;9.302;2023-04-23T07:15:01;13.88;79.83
66119;DHT22;52912;48.564;9.302;2023-04-23T07:17:26;13.79;80.94
66119;DHT22;52912;48.564;9.302;2023-04-23T07:19:53;14.06;80.82
66119;DHT22;52912;48.564;9.302;2023-04-23T07:22:18;14.26;79.31
66119;DHT22;52912;48.564;9.302;2023-04-23T07:24:44;14.40;78.53
66119;DHT22;52912;48.564;9.302;2023-04-23T07:27:09;14.56;78.25
66119;DHT22;52912;48.564;9.302;2023-04-23T07:29:35;14.75;77.88
66119;DHT22;52912;48.564;9.302;2023-04-23T07:32:01;15.05;78.85
66119;DHT22;52912;48.564;9.302;2023-04-23T07:34:26;15.16;76.69
66119;DHT22;52912;48.564;9.302;2023-04-23T07:36:53;15.34;75.50
66119;DHT22;52912;48.564;9.302;2023-04-23T07:39:18;15.23;75.07
66119;DHT22;52912;48.564;9.302;2023-04-23T07:41:44;15.29;75.86
66119;DHT22;52912;48.564;9.302;2023-04-23T07:44:09;15.37;75.70
66119;DHT22;52912;48.564;9.302;2023-04-23T07:46:35;15.49;74.83
66119;DHT22;52912;48.564;9.302;2023-04-23T07:49:00;15.67;73.90
66119;DHT22;52912;48.564;9.302;2023-04-23T07:51:26;15.16;74.56
66119;DHT22;52912;48.564;9.302;2023-04-23T07:53:53;14.99;75.42
66119;DHT22;52912;48.564;9.302;2023-04-23T07:56:19;15.03;75.59
66119;DHT22;52912;48.564;9.302;2023-04-23T07:58:44;15.02;75.97
66119;DHT22;52912;48.564;9.302;2023-04-23T08:01:10;15.39;75.85
66119;DHT22;52912;48.564;9.302;2023-04-23T08:03:35;15.34;75.52
66119;DHT22;52912;48.564;9.302;2023-04-23T08:06:00;15.36;74.26
66119;DHT22;52912;48.564;9.302;2023-04-23T08:08:26;15.68;73.51
66119;DHT22;52912;48.564;9.302;2023-04-23T08:10:53;15.96;72.61
66119;DHT22;52912;48.564;9.302;2023-04-23T08:13:18;15.89;72.24
66119;DHT22;52912;48.564;9.302;2023-04-23T08:15:44;15.72;72.28
66119;DHT22;52912;48.564;9.302;2023-04-23T08:18:09;15.68;71.21
66119;DHT22;52912;48.564;9.302;2023-04-23T08:20:35;15.84;70.56
66119;DHT22;52912;48.564;9.302;2023-04-23T08:23:00;16.37;69.87
66119;DHT22;52912;48.564;9.302;2023-04-23T08:25:28;16.34;71.75
66119;DHT22;52912;48.564;9.302;2023-04-23T08:27:54;16.08;71.51
66119;DHT22;52912;48.564;9.302;2023-04-23T08:30:20;15.79;71.64
66119;DHT22;52912;48.564;9.302;2023-04-23T08:32:48;15.84;71.03
66119;DHT22;52912;48.564;9.302;2023-04-23T08:35:14;15.96;72.43
66119;DHT22;52912;48.564;9.302;2023-04-23T08:37:39;16.04;71.93
66119;DHT22;52912;48.564;9.302;2023-04-23T08:40:06;15.98;70.81
66119;DHT22;52912;48.564;9.302;2023-04-23T08:42:37;15.95;72.08
66119;DHT22;52912;48.564;9.302;2023-04-23T08:45:08;16.05;71.76
66119;DHT22;52912;48.564;9.302;2023-04-23T08:47:34;16.12;71.08
66119;DHT22;52912;48.564;9.302;2023-04-23T08:50:00;16.37;70.44
66119;DHT22;52912;48.564;9.302;2023-04-23T08:52:28;16.22;71.03
66119;DHT22;52912;48.564;9.302;2023-04-23T08:54:59;16.86;68.71
66119;DHT22;52912;48.564;9.302;2023-04-23T08:57:25;16.85;69.31
66119;DHT22;52912;48.564;9.302;2023-04-23T08:59:51;17.03;69.03
66119;DHT22;52912;48.564;9.302;2023-04-23T09:02:18;17.11;69.88
66119;DHT22;52912;48.564;9.302;2023-04-23T09:04:44;17.40;69.30
66119;DHT22;52912;48.564;9.302;2023-04-23T09:07:09;17.53;67.04
66119;DHT22;52912;48.564;9.302;2023-04-23T09:09:36;17.30;67.30
66119;DHT22;52912;48.564;9.302;2023-04-23T09:12:03;17.16;68.38
66119;DHT22;52912;48.564;9.302;2023-04-23T09:14:29;17.23;67.59
66119;DHT22;52912;48.564;9.302;2023-04-23T09:16:54;17.60;66.93
66119;DHT22;52912;48.564;9.302;2023-04-23T09:19:21;17.88;67.43
66119;DHT22;52912;48.564;9.302;2023-04-23T09:21:47;17.99;66.20
66119;DHT22;52912;48.564;9.302;2023-04-23T09:24:12;18.02;66.35
66119;DHT22;52912;48.564;9.302;2023-04-23T09:26:43;17.85;65.18
66119;DHT22;52912;48.564;9.302;2023-04-23T09:29:12;17.46;66.00
66119;DHT22;52912;48.564;9.302;2023-04-23T09:31:38;17.33;65.01
66119;DHT22;52912;48.564;9.302;2023-04-23T09:34:06;18.02;65.73
66119;DHT22;52912;48.564;9.302;2023-04-23T09:36:32;18.43;63.37
66119;DHT22;52912;48.564;9.302;2023-04-23T09:38:58;18.46;64.83
66119;DHT22;52912;48.564;9.302;2023-04-23T09:41:25;17.98;65.36
66119;DHT22;52912;48.564;9.302;2023-04-23T09:43:52;17.84;64.92
66119;DHT22;52912;48.564;9.302;2023-04-23T09:46:18;17.75;64.28
66119;DHT22;52912;48.564;9.302;2023-04-23T09:48:43;17.92;63.85
66119;DHT22;52912;48.564;9.302;2023-04-23T09:51:12;18.14;64.41
66119;DHT22;52912;48.564;9.302;2023-04-23T09:53:41;17.95;65.05
66119;DHT22;52912;48.564;9.302;2023-04-23T09:56:07;17.94;65.08
66119;DHT22;52912;48.564;9.302;2023-04-23T09:58:32;17.92;64.17
66119;DHT22;52912;48.564;9.302;2023-04-23T10:01:05;18.06;63.59
66119;DHT22;52912;48.564;9.302;2023-04-23T10:03:31;18.81;63.41
66119;DHT22;52912;48.564;9.302;2023-04-23T10:05:57;19.02;62.09
66119;DHT22;52912;48.564;9.302;2023-04-23T10:08:23;19.13;61.76
66119;DHT22;52912;48.564;9.302;2023-04-23T10:10:50;19.53;60.72
66119;DHT22;52912;48.564;9.302;2023-04-23T10:13:16;19.09;61.84
66119;DHT22;52912;48.564;9.302;2023-04-23T10:15:45;19.70;61.70
66119;DHT22;52912;48.564;9.302;2023-04-23T10:18:10;19.83;60.50
66119;DHT22;52912;48.564;9.302;2023-04-23T10:20:37;19.81;61.06
66119;DHT22;52912;48.564;9.302;2023-04-23T10:23:04;19.98;59.43
66119;DHT22;52912;48.564;9.302;2023-04-23T10:25:30;19.60;60.85
66119;DHT22;52912;48.564;9.302;2023-04-23T10:27:59;19.61;60.66
66119;DHT22;52912;48.564;9.302;2023-04-23T10:30:27;19.81;60.11
66119;DHT22;52912;48.564;9.302;2023-04-23T10:32:54;19.47;60.89
66119;DHT22;52912;48.564;9.302;2023-04-23T10:35:21;18.74;61.43
66119;DHT22;52912;48.564;9.302;2023-04-23T10:37:47;19.30;61.75
66119;DHT22;52912;48.564;9.302;2023-04-23T10:40:15;19.53;61.95
66119;DHT22;52912;48.564;9.302;2023-04-23T10:42:43;20.13;60.26
66119;DHT22;52912;48.564;9.302;2023-04-23T10:45:14;20.47;59.47
66119;DHT22;52912;48.564;9.302;2023-04-23T10:47:41;20.39;59.14
66119;DHT22;52912;48.564;9.302;2023-04-23T10:50:21;20.55;58.67
66119;DHT22;52912;48.564;9.302;2023-04-23T10:52:47;21.12;57.60
66119;DHT22;52912;48.564;9.302;2023-04-23T10:55:16;21.34;57.12
66119;DHT22;52912;48.564;9.302;2023-04-23T10:57:54;20.95;57.50
66119;DHT22;52912;48.564;9.302;2023-04-23T11:00:22;21.37;58.45
66119;DHT22;52912;48.564;9.302;2023-04-23T11:02:49;21.27;57.56
66119;DHT22;52912;48.564;9.302;2023-04-23T11:05:15;21.07;57.16
66119;DHT22;52912;48.564;9.302;2023-04-23T11:07:40;20.17;57.19
66119;DHT22;52912;48.564;9.302;2023-04-23T11:10:10;20.27;57.67
66119;DHT22;52912;48.564;9.302;2023-04-23T11:12:38;20.41;58.20
66119;DHT22;52912;48.564;9.302;2023-04-23T11:15:11;20.48;57.02
66119;DHT22;52912;48.564;9.302;2023-04-23T11:18:00;21.24;56.33
66119;DHT22;52912;48.564;9.302;2023-04-23T11:20:25;20.50;56.54
66119;DHT22;52912;48.564;9.302;2023-04-23T11:22:51;20.67;57.14
66119;DHT22;52912;48.564;9.302;2023-04-23T11:25:19;21.39;57.92
66119;DHT22;52912;48.564;9.302;2023-04-23T11:27:46;21.15;56.63
66119;DHT22;52912;48.564;9.302;2023-04-23T11:30:13;20.13;57.05
66119;DHT22;52912;48.564;9.302;2023-04-23T11:32:39;20.71;57.23
66119;DHT22;52912;48.564;9.302;2023-04-23T11:35:07;20.41;56.95
66119;DHT22;52912;48.564;9.302;2023-04-23T11:37:37;19.99;58.16
66119;DHT22;52912;48.564;9.302;2023-04-23T11:40:05;19.75;59.23
66119;DHT22;52912;48.564;9.302;2023-04-23T11:42:30;19.98;58.86
66119;DHT22;52912;48.564;9.302;2023-04-23T11:44:56;20.10;58.70
66119;DHT22;52912;48.564;9.302;2023-04-23T11:47:24;20.06;58.51
66119;DHT22;52912;48.564;9.302;2023-04-23T11:49:50;20.61;58.49
66119;DHT22;52912;48.564;9.302;2023-04-23T11:52:17;20.68;57.76
66119;DHT22;52912;48.564;9.302;2023-04-23T11:54:45;21.20;55.81
66119;DHT22;52912;48.564;9.302;2023-04-23T11:57:10;21.30;55.87
66119;DHT22;52912;48.564;9.302;2023-04-23T11:59:36;20.88;56.78
66119;DHT22;52912;48.564;9.302;2023-04-23T12:02:01;21.44;56.38
66119;DHT22;52912;48.564;9.302;2023-04-23T12:04:28;21.40;56.59
66119;DHT22;52912;48.564;9.302;2023-04-23T12:06:55;20.70;57.69
66119;DHT22;52912;48.564;9.302;2023-04-23T12:09:24;20.79;56.47
66119;DHT22;52912;48.564;9.302;2023-04-23T12:11:50;21.61;55.55
66119;DHT22;52912;48.564;9.302;2023-04-23T12:14:16;22.30;53.54
66119;DHT22;52912;48.564;9.302;2023-04-23T12:16:43;21.64;55.44
66119;DHT22;52912;48.564;9.302;2023-04-23T12:19:11;21.32;55.72
66119;DHT22;52912;48.564;9.302;2023-04-23T12:21:47;21.50;55.45
66119;DHT22;52912;48.564;9.302;2023-04-23T12:24:13;21.67;54.81
66119;DHT22;52912;48.564;9.302;2023-04-23T12:26:40;20.71;55.80
66119;DHT22;52912;48.564;9.302;2023-04-23T12:29:06;20.98;55.46
66119;DHT22;52912;48.564;9.302;2023-04-23T12:31:32;22.13;54.35
66119;DHT22;52912;48.564;9.302;2023-04-23T12:34:00;22.46;52.62
66119;DHT22;52912;48.564;9.302;2023-04-23T12:36:27;22.17;52.92
66119;DHT22;52912;48.564;9.302;2023-04-23T12:38:53;22.35;53.00
66119;DHT22;52912;48.564;9.302;2023-04-23T12:41:18;22.82;52.20
66119;DHT22;52912;48.564;9.302;2023-04-23T12:43:45;23.02;52.91
66119;DHT22;52912;48.564;9.302;2023-04-23T12:46:11;23.29;51.65
66119;DHT22;52912;48.564;9.302;2023-04-23T12:48:36;22.76;53.10
66119;DHT22;52912;48.564;9.302;2023-04-23T12:51:02;22.85;53.67
66119;DHT22;52912;48.564;9.302;2023-04-23T12:53:27;23.10;52.04
66119;DHT22;52912;48.564;9.302;2023-04-23T12:55:52;23.08;52.76
66119;DHT22;52912;48.564;9.302;2023-04-23T12:58:18;22.75;52.92
66119;DHT22;52912;48.564;9.302;2023-04-23T13:00:45;22.12;54.46
66119;DHT22;52912;48.564;9.302;2023-04-23T13:03:10;22.40;53.82
66119;DHT22;52912;48.564;9.302;2023-04-23T13:05:36;23.77;51.35
66119;DHT22;52912;48.564;9.302;2023-04-23T13:08:01;24.02;50.02
66119;DHT22;52912;48.564;9.302;2023-04-23T13:10:26;24.51;49.41
66119;DHT22;52912;48.564;9.302;2023-04-23T13:12:52;24.78;48.31
66119;DHT22;52912;48.564;9.302;2023-04-23T13:15:17;24.50;49.46
66119;DHT22;52912;48.564;9.302;2023-04-23T13:17:45;23.57;51.54
66119;DHT22;52912;48.564;9.302;2023-04-23T13:20:10;22.54;52.36
66119;DHT22;52912;48.564;9.302;2023-04-23T13:22:36;23.54;51.98
66119;DHT22;52912;48.564;9.302;2023-04-23T13:25:01;22.40;50.32
66119;DHT22;52912;48.564;9.302;2023-04-23T13:27:28;23.09;50.32
66119;DHT22;52912;48.564;9.302;2023-04-23T13:29:53;23.44;49.58
66119;DHT22;52912;48.564;9.302;2023-04-23T13:32:19;23.29;51.03
66119;DHT22;52912;48.564;9.302;2023-04-23T13:34:46;22.36;50.45
66119;DHT22;52912;48.564;9.302;2023-04-23T13:37:12;22.19;53.39
66119;DHT22;52912;48.564;9.302;2023-04-23T13:39:37;22.14;54.87
66119;DHT22;52912;48.564;9.302;2023-04-23T13:42:03;22.03;56.25
66119;DHT22;52912;48.564;9.302;2023-04-23T13:44:29;21.85;54.31
66119;DHT22;52912;48.564;9.302;2023-04-23T13:46:54;21.79;56.03
66119;DHT22;52912;48.564;9.302;2023-04-23T13:49:20;21.61;56.07
66119;DHT22;52912;48.564;9.302;2023-04-23T13:51:46;21.79;56.84
66119;DHT22;52912;48.564;9.302;2023-04-23T13:54:12;20.74;58.44
66119;DHT22;52912;48.564;9.302;2023-04-23T13:56:37;20.34;59.26
66119;DHT22;52912;48.564;9.302;2023-04-23T13:59:03;20.36;59.89
66119;DHT22;52912;48.564;9.302;2023-04-23T14:01:28;21.47;58.23
66119;DHT22;52912;48.564;9.302;2023-04-23T14:03:54;22.20;55.66
66119;DHT22;52912;48.564;9.302;2023-04-23T14:06:19;22.65;54.69
66119;DHT22;52912;48.564;9.302;2023-04-23T14:08:46;23.61;53.68
66119;DHT22;52912;48.564;9.302;2023-04-23T14:11:11;23.71;53.06
66119;DHT22;52912;48.564;9.302;2023-04-23T14:13:37;23.63;52.27
66119;DHT22;52912;48.564;9.302;2023-04-23T14:16:02;24.13;50.37
66119;DHT22;52912;48.564;9.302;2023-04-23T14:18:28;24.29;50.72
66119;DHT22;52912;48.564;9.302;2023-04-23T14:20:53;24.46;49.84
66119;DHT22;52912;48.564;9.302;2023-04-23T14:23:43;24.61;51.16
66119;DHT22;52912;48.564;9.302;2023-04-23T14:26:20;24.67;49.97
66119;DHT22;52912;48.564;9.302;2023-04-23T14:28:50;24.65;49.30
66119;DHT22;52912;48.564;9.302;2023-04-23T14:31:15;24.77;49.05
66119;DHT22;52912;48.564;9.302;2023-04-23T14:33:41;25.18;48.24
66119;DHT22;52912;48.564;9.302;2023-04-23T14:36:06;24.91;48.09
66119;DHT22;52912;48.564;9.302;2023-04-23T14:38:32;24.81;47.65
66119;DHT22;52912;48.564;9.302;2023-04-23T14:40:57;24.43;49.11
66119;DHT22;52912;48.564;9.302;2023-04-23T14:43:24;24.09;49.18
66119;DHT22;52912;48.564;9.302;2023-04-23T14:45:49;23.39;50.14
66119;DHT22;52912;48.564;9.302;2023-04-23T14:48:15;23.26;51.17
66119;DHT22;52912;48.564;9.302;2023-04-23T14:50:41;22.75;51.68
66119;DHT22;52912;48.564;9.302;2023-04-23T14:53:06;22.60;52.73
66119;DHT22;52912;48.564;9.302;2023-04-23T14:55:31;22.54;53.02
66119;DHT22;52912;48.564;9.302;2023-04-23T14:57:57;23.08;52.81
66119;DHT22;52912;48.564;9.302;2023-04-23T15:00:24;23.12;54.55
66119;DHT22;52912;48.564;9.302;2023-04-23T15:02:49;23.40;52.46
66119;DHT22;52912;48.564;9.302;2023-04-23T15:05:15;23.58;51.68
66119;DHT22;52912;48.564;9.302;2023-04-23T15:07:40;23.79;50.18
66119;DHT22;52912;48.564;9.302;2023-04-23T15:10:07;23.72;49.22
66119;DHT22;52912;48.564;9.302;2023-04-23T15:12:42;23.43;50.17
66119;DHT22;52912;48.564;9.302;2023-04-23T15:15:20;23.44;50.38
66119;DHT22;52912;48.564;9.302;2023-04-23T15:17:47;22.65;52.75
66119;DHT22;52912;48.564;9.302;2023-04-23T15:20:12;22.81;52.82
66119;DHT22;52912;48.564;9.302;2023-04-23T15:22:38;22.64;53.22
66119;DHT22;52912;48.564;9.302;2023-04-23T15:25:04;21.88;55.55